Ottawa, IL (61350)

6:19 PM CST on February 20, 2017 (GMT -0600)
| | Change Station
Active Advisory: Small Craft Advisory

Elev -9999 ft 0.00 °N, 0.00 °E | Updated 7 minutes ago

Mostly Cloudy
Mostly Cloudy
°F
Feels Like °F
N
Wind Variable Wind from North
Gusts mph

Today
High -- | Low -- °F
--% Chance of Precip.
Yesterday
High -- | Low -- °F
Precip. -- in
Pressure 29.91 in
Visibility 10.0 miles
Clouds Overcast 9500 ft
Dew Point Not available.
Humidity Not available.
Rainfall --
Snow Depth Not available.
6:42 AM 5:35 PM
Waning Crescent, 30% visible
METAR KVYS 202355Z AUTO 15015KT 10SM OVC095 19/10 A2991 RMK AO2 T01860095 10205 20186
Pressure 29.91 in
Visibility 10.0 miles
Clouds Overcast 9500 ft
Dew Point Not available.
Humidity Not available.
Rainfall --
Snow Depth Not available.
6:42 AM 5:35 PM
Waning Crescent, 30% visible
METAR KVYS 202355Z AUTO 15015KT 10SM OVC095 19/10 A2991 RMK AO2 T01860095 10205 20186

Get Your Daily Forecast Email!

Thanks for signing up!

Be on the lookout for a verification email in your inbox.

You'll start receiving the daily forecast at 8 AM.

×

10-Day Weather Forecast

Almanac

Astronomy

Feb. 20, 2017 Rise Set
Actual Time
Civil Twilight
Nautical Twilight
Astronomical Twilight
Moon
Length of Visible Light
Length of Day
Tomorrow will be .
, % of the Moon is Illuminated

Today's Extremes

State Highs State Lows

Community

WunderPhotos

Upload Photos

1,962,540 photos uploaded!

WunderBlog® & News

Nearby

Air Quality

  Air Quality AQ Index Pollutant
Not available.

Snow Depth

Station Depth Elevation

Earthquake Activity

City Distance Mag. Time & Date
Minimum magnitude displayed is 2.5.

Coastal Water Temperatures

Place Temperature

Stations

Nearby Weather Stations

Station Location Temp. Windchill Dew Point Humidity Wind Precip. Elev Updated Type
                   

Watches & Warnings

Small Craft Advisory
Issued: 3:01 PM CST Feb. 20, 2017 – National Weather Service

... Small Craft Advisory remains in effect until 3 am CST
Tuesday...

* winds... to 25 kt.

* Significant waves... to 5 ft for IL... to 3 ft for Indiana.

* Occasional waves... to 7 ft for IL.

Precautionary/preparedness actions...

A Small Craft Advisory means that wind speeds of 21 to 33 knots
are expected to produce hazardous wave conditions to small craft.
Inexperienced mariners... especially those operating smaller
vessels should avoid navigating in these conditions.



Bmd